sensor_id;sensor_type;location;lat;lon;timestamp;P1;durP1;ratioP1;P2;durP2;ratioP2
17504;SDS011;8870;50.950;11.762;2023-12-22T00:03:35;12.65;;;2.60;;
17504;SDS011;8870;50.950;11.762;2023-12-22T00:08:53;14.50;;;3.13;;
17504;SDS011;8870;50.950;11.762;2023-12-22T00:14:27;12.55;;;3.00;;
17504;SDS011;8870;50.950;11.762;2023-12-22T00:19:45;17.05;;;3.20;;
17504;SDS011;8870;50.950;11.762;2023-12-22T00:25:20;15.48;;;3.17;;
17504;SDS011;8870;50.950;11.762;2023-12-22T00:30:41;16.90;;;2.72;;
17504;SDS011;8870;50.950;11.762;2023-12-22T00:36:12;14.90;;;2.97;;
17504;SDS011;8870;50.950;11.762;2023-12-22T00:41:32;16.15;;;3.08;;
17504;SDS011;8870;50.950;11.762;2023-12-22T00:47:06;13.65;;;3.55;;
17504;SDS011;8870;50.950;11.762;2023-12-22T00:52:24;13.15;;;2.72;;
17504;SDS011;8870;50.950;11.762;2023-12-22T00:57:55;16.90;;;2.85;;
17504;SDS011;8870;50.950;11.762;2023-12-22T01:03:23;14.82;;;2.72;;
17504;SDS011;8870;50.950;11.762;2023-12-22T01:08:54;10.82;;;2.72;;
17504;SDS011;8870;50.950;11.762;2023-12-22T01:14:12;14.63;;;3.00;;
17504;SDS011;8870;50.950;11.762;2023-12-22T01:19:46;14.63;;;2.78;;
17504;SDS011;8870;50.950;11.762;2023-12-22T01:25:06;13.80;;;2.72;;
17504;SDS011;8870;50.950;11.762;2023-12-22T01:30:37;17.00;;;3.17;;
17504;SDS011;8870;50.950;11.762;2023-12-22T01:35:58;16.63;;;2.97;;
17504;SDS011;8870;50.950;11.762;2023-12-22T01:41:29;13.80;;;3.00;;
17504;SDS011;8870;50.950;11.762;2023-12-22T01:46:47;13.18;;;2.80;;
17504;SDS011;8870;50.950;11.762;2023-12-22T01:52:23;13.93;;;2.70;;
17504;SDS011;8870;50.950;11.762;2023-12-22T01:57:42;10.18;;;2.35;;
17504;SDS011;8870;50.950;11.762;2023-12-22T02:03:15;10.50;;;2.28;;
17504;SDS011;8870;50.950;11.762;2023-12-22T02:08:37;11.90;;;2.30;;
17504;SDS011;8870;50.950;11.762;2023-12-22T02:14:08;10.00;;;2.20;;
17504;SDS011;8870;50.950;11.762;2023-12-22T02:19:29;8.95;;;2.10;;
17504;SDS011;8870;50.950;11.762;2023-12-22T02:25:14;10.10;;;2.10;;
17504;SDS011;8870;50.950;11.762;2023-12-22T02:30:33;6.78;;;1.77;;
17504;SDS011;8870;50.950;11.762;2023-12-22T02:36:09;11.88;;;2.35;;
17504;SDS011;8870;50.950;11.762;2023-12-22T02:41:32;8.43;;;2.10;;
17504;SDS011;8870;50.950;11.762;2023-12-22T02:47:04;14.95;;;2.60;;
17504;SDS011;8870;50.950;11.762;2023-12-22T02:52:23;6.93;;;1.80;;
17504;SDS011;8870;50.950;11.762;2023-12-22T02:57:57;8.25;;;1.73;;
17504;SDS011;8870;50.950;11.762;2023-12-22T03:03:15;8.15;;;1.90;;
17504;SDS011;8870;50.950;11.762;2023-12-22T03:08:46;6.03;;;1.60;;
17504;SDS011;8870;50.950;11.762;2023-12-22T03:14:07;6.72;;;1.70;;
17504;SDS011;8870;50.950;11.762;2023-12-22T03:19:38;8.55;;;1.92;;
17504;SDS011;8870;50.950;11.762;2023-12-22T03:24:57;10.40;;;2.33;;
17504;SDS011;8870;50.950;11.762;2023-12-22T03:30:30;9.82;;;1.70;;
17504;SDS011;8870;50.950;11.762;2023-12-22T03:35:50;10.90;;;2.22;;
17504;SDS011;8870;50.950;11.762;2023-12-22T03:41:21;6.72;;;1.63;;
17504;SDS011;8870;50.950;11.762;2023-12-22T03:46:42;6.22;;;1.40;;
17504;SDS011;8870;50.950;11.762;2023-12-22T03:52:13;7.60;;;1.38;;
17504;SDS011;8870;50.950;11.762;2023-12-22T03:57:32;6.40;;;1.60;;
17504;SDS011;8870;50.950;11.762;2023-12-22T04:03:05;8.90;;;1.85;;
17504;SDS011;8870;50.950;11.762;2023-12-22T04:08:36;6.20;;;1.55;;
17504;SDS011;8870;50.950;11.762;2023-12-22T04:13:54;5.63;;;1.45;;
17504;SDS011;8870;50.950;11.762;2023-12-22T04:19:28;4.32;;;0.90;;
17504;SDS011;8870;50.950;11.762;2023-12-22T04:24:47;7.70;;;1.40;;
17504;SDS011;8870;50.950;11.762;2023-12-22T04:30:18;5.90;;;1.30;;
17504;SDS011;8870;50.950;11.762;2023-12-22T04:35:43;6.13;;;1.30;;
17504;SDS011;8870;50.950;11.762;2023-12-22T04:41:03;4.05;;;0.80;;
17504;SDS011;8870;50.950;11.762;2023-12-22T04:46:33;4.18;;;0.80;;
17504;SDS011;8870;50.950;11.762;2023-12-22T04:51:54;3.80;;;0.80;;
17504;SDS011;8870;50.950;11.762;2023-12-22T04:57:25;2.92;;;0.80;;
17504;SDS011;8870;50.950;11.762;2023-12-22T05:02:50;5.70;;;0.93;;
17504;SDS011;8870;50.950;11.762;2023-12-22T05:08:24;3.90;;;0.90;;
17504;SDS011;8870;50.950;11.762;2023-12-22T05:13:42;4.72;;;1.08;;
17504;SDS011;8870;50.950;11.762;2023-12-22T05:19:15;6.43;;;1.25;;
17504;SDS011;8870;50.950;11.762;2023-12-22T05:24:36;4.18;;;1.42;;
17504;SDS011;8870;50.950;11.762;2023-12-22T05:30:08;3.95;;;1.10;;
17504;SDS011;8870;50.950;11.762;2023-12-22T05:35:27;7.93;;;1.42;;
17504;SDS011;8870;50.950;11.762;2023-12-22T05:41:00;6.13;;;1.27;;
17504;SDS011;8870;50.950;11.762;2023-12-22T05:46:19;7.95;;;1.50;;
17504;SDS011;8870;50.950;11.762;2023-12-22T05:51:49;6.30;;;1.35;;
17504;SDS011;8870;50.950;11.762;2023-12-22T05:57:10;7.57;;;1.50;;
17504;SDS011;8870;50.950;11.762;2023-12-22T06:02:41;7.55;;;1.80;;
17504;SDS011;8870;50.950;11.762;2023-12-22T06:08:12;8.20;;;1.50;;
17504;SDS011;8870;50.950;11.762;2023-12-22T06:13:33;6.43;;;1.30;;
17504;SDS011;8870;50.950;11.762;2023-12-22T06:19:04;7.50;;;1.50;;
17504;SDS011;8870;50.950;11.762;2023-12-22T06:24:25;8.50;;;1.70;;
17504;SDS011;8870;50.950;11.762;2023-12-22T06:29:58;6.63;;;1.40;;
17504;SDS011;8870;50.950;11.762;2023-12-22T06:35:16;5.43;;;1.40;;
17504;SDS011;8870;50.950;11.762;2023-12-22T06:40:48;4.65;;;1.25;;
17504;SDS011;8870;50.950;11.762;2023-12-22T06:46:16;8.02;;;1.45;;
17504;SDS011;8870;50.950;11.762;2023-12-22T06:51:48;7.85;;;1.80;;
17504;SDS011;8870;50.950;11.762;2023-12-22T06:57:07;6.05;;;1.40;;
17504;SDS011;8870;50.950;11.762;2023-12-22T07:02:42;7.55;;;1.17;;
17504;SDS011;8870;50.950;11.762;2023-12-22T07:08:13;4.53;;;1.67;;
17504;SDS011;8870;50.950;11.762;2023-12-22T07:13:32;5.00;;;1.10;;
17504;SDS011;8870;50.950;11.762;2023-12-22T07:19:05;5.07;;;1.20;;
17504;SDS011;8870;50.950;11.762;2023-12-22T07:24:24;3.47;;;0.90;;
17504;SDS011;8870;50.950;11.762;2023-12-22T07:29:55;4.40;;;0.90;;
17504;SDS011;8870;50.950;11.762;2023-12-22T07:35:17;2.92;;;0.85;;
17504;SDS011;8870;50.950;11.762;2023-12-22T07:40:49;3.85;;;0.82;;
17504;SDS011;8870;50.950;11.762;2023-12-22T07:46:07;2.83;;;0.77;;
17504;SDS011;8870;50.950;11.762;2023-12-22T07:51:41;2.50;;;0.60;;
17504;SDS011;8870;50.950;11.762;2023-12-22T07:57:00;1.52;;;0.60;;
17504;SDS011;8870;50.950;11.762;2023-12-22T08:02:31;1.88;;;0.60;;
17504;SDS011;8870;50.950;11.762;2023-12-22T08:07:52;3.08;;;0.70;;
17504;SDS011;8870;50.950;11.762;2023-12-22T08:13:24;2.03;;;0.65;;
17504;SDS011;8870;50.950;11.762;2023-12-22T08:18:42;4.28;;;0.77;;
17504;SDS011;8870;50.950;11.762;2023-12-22T08:24:17;1.38;;;0.60;;
17504;SDS011;8870;50.950;11.762;2023-12-22T08:29:37;4.50;;;0.85;;
17504;SDS011;8870;50.950;11.762;2023-12-22T08:35:08;1.55;;;0.57;;
17504;SDS011;8870;50.950;11.762;2023-12-22T08:40:28;4.43;;;1.00;;
17504;SDS011;8870;50.950;11.762;2023-12-22T08:46:00;3.00;;;0.90;;
17504;SDS011;8870;50.950;11.762;2023-12-22T08:51:19;9.00;;;1.40;;
17504;SDS011;8870;50.950;11.762;2023-12-22T08:56:52;5.35;;;1.38;;
17504;SDS011;8870;50.950;11.762;2023-12-22T09:02:17;8.05;;;1.20;;
17504;SDS011;8870;50.950;11.762;2023-12-22T09:07:48;8.60;;;1.40;;
17504;SDS011;8870;50.950;11.762;2023-12-22T09:13:09;8.60;;;1.80;;
17504;SDS011;8870;50.950;11.762;2023-12-22T09:18:42;5.78;;;1.30;;
17504;SDS011;8870;50.950;11.762;2023-12-22T09:24:01;8.52;;;1.48;;
17504;SDS011;8870;50.950;11.762;2023-12-22T09:29:36;8.45;;;1.77;;
17504;SDS011;8870;50.950;11.762;2023-12-22T09:34:55;8.15;;;1.60;;
17504;SDS011;8870;50.950;11.762;2023-12-22T09:40:27;9.65;;;1.55;;
17504;SDS011;8870;50.950;11.762;2023-12-22T09:45:48;6.03;;;1.23;;
17504;SDS011;8870;50.950;11.762;2023-12-22T09:51:20;5.43;;;1.40;;
17504;SDS011;8870;50.950;11.762;2023-12-22T09:56:39;5.13;;;1.10;;
17504;SDS011;8870;50.950;11.762;2023-12-22T10:02:14;5.82;;;1.60;;
17504;SDS011;8870;50.950;11.762;2023-12-22T10:07:34;7.32;;;1.70;;
17504;SDS011;8870;50.950;11.762;2023-12-22T10:13:06;7.35;;;1.40;;
17504;SDS011;8870;50.950;11.762;2023-12-22T10:18:29;4.45;;;1.35;;
17504;SDS011;8870;50.950;11.762;2023-12-22T10:24:01;8.52;;;1.75;;
17504;SDS011;8870;50.950;11.762;2023-12-22T10:29:32;6.40;;;1.23;;
17504;SDS011;8870;50.950;11.762;2023-12-22T10:34:53;3.88;;;0.90;;
17504;SDS011;8870;50.950;11.762;2023-12-22T10:40:25;9.38;;;1.77;;
17504;SDS011;8870;50.950;11.762;2023-12-22T10:45:43;5.43;;;1.27;;
17504;SDS011;8870;50.950;11.762;2023-12-22T10:51:16;5.60;;;1.23;;
17504;SDS011;8870;50.950;11.762;2023-12-22T10:56:35;9.35;;;1.35;;
17504;SDS011;8870;50.950;11.762;2023-12-22T11:02:07;4.13;;;1.00;;
17504;SDS011;8870;50.950;11.762;2023-12-22T11:07:33;7.95;;;2.00;;
17504;SDS011;8870;50.950;11.762;2023-12-22T11:13:06;4.07;;;1.33;;
17504;SDS011;8870;50.950;11.762;2023-12-22T11:18:26;4.82;;;1.25;;
17504;SDS011;8870;50.950;11.762;2023-12-22T11:24:01;4.53;;;1.20;;
17504;SDS011;8870;50.950;11.762;2023-12-22T11:29:22;5.03;;;1.30;;
17504;SDS011;8870;50.950;11.762;2023-12-22T11:34:56;4.50;;;1.17;;
17504;SDS011;8870;50.950;11.762;2023-12-22T11:40:19;5.50;;;1.35;;
17504;SDS011;8870;50.950;11.762;2023-12-22T11:45:52;5.45;;;1.27;;
17504;SDS011;8870;50.950;11.762;2023-12-22T11:51:12;4.50;;;1.00;;
17504;SDS011;8870;50.950;11.762;2023-12-22T11:56:47;5.85;;;1.30;;
17504;SDS011;8870;50.950;11.762;2023-12-22T12:02:13;5.47;;;0.85;;
17504;SDS011;8870;50.950;11.762;2023-12-22T12:07:44;3.57;;;0.97;;
17504;SDS011;8870;50.950;11.762;2023-12-22T12:13:07;3.80;;;0.65;;
17504;SDS011;8870;50.950;11.762;2023-12-22T12:18:40;0.90;;;0.40;;
17504;SDS011;8870;50.950;11.762;2023-12-22T12:23:59;0.55;;;0.30;;
17504;SDS011;8870;50.950;11.762;2023-12-22T12:29:34;0.90;;;0.35;;
17504;SDS011;8870;50.950;11.762;2023-12-22T12:34:54;0.88;;;0.40;;
17504;SDS011;8870;50.950;11.762;2023-12-22T12:40:26;1.95;;;0.70;;
17504;SDS011;8870;50.950;11.762;2023-12-22T12:45:54;1.10;;;0.35;;
17504;SDS011;8870;50.950;11.762;2023-12-22T12:51:25;0.77;;;0.40;;
17504;SDS011;8870;50.950;11.762;2023-12-22T12:56:43;1.58;;;0.60;;
17504;SDS011;8870;50.950;11.762;2023-12-22T13:02:18;2.08;;;0.47;;
17504;SDS011;8870;50.950;11.762;2023-12-22T13:07:50;1.17;;;0.50;;
17504;SDS011;8870;50.950;11.762;2023-12-22T13:13:08;0.95;;;0.50;;
17504;SDS011;8870;50.950;11.762;2023-12-22T13:18:41;2.08;;;0.65;;
17504;SDS011;8870;50.950;11.762;2023-12-22T13:24:09;2.83;;;0.85;;
17504;SDS011;8870;50.950;11.762;2023-12-22T13:29:42;2.88;;;0.70;;
17504;SDS011;8870;50.950;11.762;2023-12-22T13:35:06;4.20;;;0.85;;
17504;SDS011;8870;50.950;11.762;2023-12-22T13:40:38;1.92;;;0.60;;
17504;SDS011;8870;50.950;11.762;2023-12-22T13:45:57;1.73;;;0.60;;
17504;SDS011;8870;50.950;11.762;2023-12-22T13:51:40;2.10;;;0.60;;
17504;SDS011;8870;50.950;11.762;2023-12-22T13:56:59;2.40;;;0.60;;
17504;SDS011;8870;50.950;11.762;2023-12-22T14:02:31;1.65;;;0.45;;
17504;SDS011;8870;50.950;11.762;2023-12-22T14:07:51;4.18;;;0.70;;
17504;SDS011;8870;50.950;11.762;2023-12-22T14:13:23;1.90;;;0.50;;
17504;SDS011;8870;50.950;11.762;2023-12-22T14:18:42;2.58;;;0.57;;
17504;SDS011;8870;50.950;11.762;2023-12-22T14:24:15;1.23;;;0.32;;
17504;SDS011;8870;50.950;11.762;2023-12-22T14:29:34;1.60;;;0.50;;
17504;SDS011;8870;50.950;11.762;2023-12-22T14:35:06;0.68;;;0.28;;
17504;SDS011;8870;50.950;11.762;2023-12-22T14:40:27;0.60;;;0.30;;
17504;SDS011;8870;50.950;11.762;2023-12-22T14:45:59;0.57;;;0.30;;
17504;SDS011;8870;50.950;11.762;2023-12-22T14:51:17;0.55;;;0.40;;
17504;SDS011;8870;50.950;11.762;2023-12-22T14:56:50;0.65;;;0.35;;
17504;SDS011;8870;50.950;11.762;2023-12-22T15:02:16;0.50;;;0.35;;
17504;SDS011;8870;50.950;11.762;2023-12-22T15:07:49;0.90;;;0.50;;
17504;SDS011;8870;50.950;11.762;2023-12-22T15:13:10;1.33;;;0.47;;
17504;SDS011;8870;50.950;11.762;2023-12-22T15:18:42;0.38;;;0.30;;
17504;SDS011;8870;50.950;11.762;2023-12-22T15:24:00;0.52;;;0.30;;
17504;SDS011;8870;50.950;11.762;2023-12-22T15:29:33;0.90;;;0.32;;
17504;SDS011;8870;50.950;11.762;2023-12-22T15:34:52;0.30;;;0.22;;
17504;SDS011;8870;50.950;11.762;2023-12-22T15:40:23;0.55;;;0.30;;
17504;SDS011;8870;50.950;11.762;2023-12-22T15:45:43;0.75;;;0.30;;
17504;SDS011;8870;50.950;11.762;2023-12-22T15:51:17;1.02;;;0.30;;
17504;SDS011;8870;50.950;11.762;2023-12-22T15:56:35;0.45;;;0.30;;
17504;SDS011;8870;50.950;11.762;2023-12-22T16:02:08;1.35;;;0.40;;
17504;SDS011;8870;50.950;11.762;2023-12-22T16:07:41;3.00;;;0.43;;
17504;SDS011;8870;50.950;11.762;2023-12-22T16:12:59;1.10;;;0.22;;
17504;SDS011;8870;50.950;11.762;2023-12-22T16:18:33;0.77;;;0.40;;
17504;SDS011;8870;50.950;11.762;2023-12-22T16:23:53;0.20;;;0.20;;
17504;SDS011;8870;50.950;11.762;2023-12-22T16:29:24;0.25;;;0.20;;
17504;SDS011;8870;50.950;11.762;2023-12-22T16:34:44;1.00;;;0.20;;
17504;SDS011;8870;50.950;11.762;2023-12-22T16:40:16;0.82;;;0.40;;
17504;SDS011;8870;50.950;11.762;2023-12-22T16:45:34;0.75;;;0.30;;
17504;SDS011;8870;50.950;11.762;2023-12-22T16:51:07;0.70;;;0.30;;
17504;SDS011;8870;50.950;11.762;2023-12-22T16:56:26;0.30;;;0.22;;
17504;SDS011;8870;50.950;11.762;2023-12-22T17:01:58;1.40;;;0.40;;
17504;SDS011;8870;50.950;11.762;2023-12-22T17:07:39;0.32;;;0.25;;
17504;SDS011;8870;50.950;11.762;2023-12-22T17:13:11;0.70;;;0.38;;
17504;SDS011;8870;50.950;11.762;2023-12-22T17:18:29;0.73;;;0.40;;
17504;SDS011;8870;50.950;11.762;2023-12-22T17:24:03;0.50;;;0.30;;
17504;SDS011;8870;50.950;11.762;2023-12-22T17:29:22;0.45;;;0.30;;
17504;SDS011;8870;50.950;11.762;2023-12-22T17:34:53;0.30;;;0.30;;
17504;SDS011;8870;50.950;11.762;2023-12-22T17:40:14;0.28;;;0.28;;
17504;SDS011;8870;50.950;11.762;2023-12-22T17:45:45;0.30;;;0.30;;
17504;SDS011;8870;50.950;11.762;2023-12-22T17:51:03;0.20;;;0.20;;
17504;SDS011;8870;50.950;11.762;2023-12-22T17:56:37;0.25;;;0.20;;
17504;SDS011;8870;50.950;11.762;2023-12-22T18:01:56;0.20;;;0.20;;
17504;SDS011;8870;50.950;11.762;2023-12-22T18:07:28;0.20;;;0.20;;
17504;SDS011;8870;50.950;11.762;2023-12-22T18:12:49;0.20;;;0.20;;
17504;SDS011;8870;50.950;11.762;2023-12-22T18:18:20;0.20;;;0.20;;
17504;SDS011;8870;50.950;11.762;2023-12-22T18:23:38;0.20;;;0.20;;
17504;SDS011;8870;50.950;11.762;2023-12-22T18:29:11;0.00;;;0.00;;
17504;SDS011;8870;50.950;11.762;2023-12-22T18:34:30;0.65;;;0.10;;
17504;SDS011;8870;50.950;11.762;2023-12-22T18:40:02;0.17;;;0.10;;
17504;SDS011;8870;50.950;11.762;2023-12-22T18:45:28;5.60;;;3.83;;
17504;SDS011;8870;50.950;11.762;2023-12-22T18:51:01;0.35;;;0.20;;
17504;SDS011;8870;50.950;11.762;2023-12-22T18:56:19;0.82;;;0.20;;
17504;SDS011;8870;50.950;11.762;2023-12-22T19:01:53;0.10;;;0.10;;
17504;SDS011;8870;50.950;11.762;2023-12-22T19:07:45;0.30;;;0.10;;
17504;SDS011;8870;50.950;11.762;2023-12-22T19:13:03;0.10;;;0.10;;
17504;SDS011;8870;50.950;11.762;2023-12-22T19:18:37;0.38;;;0.20;;
17504;SDS011;8870;50.950;11.762;2023-12-22T19:23:56;0.43;;;0.20;;
17504;SDS011;8870;50.950;11.762;2023-12-22T19:29:14;0.32;;;0.15;;
17504;SDS011;8870;50.950;11.762;2023-12-22T19:34:49;0.10;;;0.10;;
17504;SDS011;8870;50.950;11.762;2023-12-22T19:40:08;0.10;;;0.10;;
17504;SDS011;8870;50.950;11.762;2023-12-22T19:45:40;0.20;;;0.10;;
17504;SDS011;8870;50.950;11.762;2023-12-22T19:51:00;0.63;;;0.10;;
17504;SDS011;8870;50.950;11.762;2023-12-22T19:56:32;0.63;;;0.20;;
17504;SDS011;8870;50.950;11.762;2023-12-22T20:01:50;0.10;;;0.10;;
17504;SDS011;8870;50.950;11.762;2023-12-22T20:07:24;1.85;;;0.17;;
17504;SDS011;8870;50.950;11.762;2023-12-22T20:12:57;0.55;;;0.40;;
17504;SDS011;8870;50.950;11.762;2023-12-22T20:18:15;0.30;;;0.20;;
17504;SDS011;8870;50.950;11.762;2023-12-22T20:23:48;0.35;;;0.20;;
17504;SDS011;8870;50.950;11.762;2023-12-22T20:29:08;0.65;;;0.20;;
17504;SDS011;8870;50.950;11.762;2023-12-22T20:34:40;0.10;;;0.10;;
17504;SDS011;8870;50.950;11.762;2023-12-22T20:40:00;1.10;;;0.32;;
17504;SDS011;8870;50.950;11.762;2023-12-22T20:45:33;0.77;;;0.40;;
17504;SDS011;8870;50.950;11.762;2023-12-22T20:50:51;0.65;;;0.30;;
17504;SDS011;8870;50.950;11.762;2023-12-22T20:56:24;0.57;;;0.20;;
17504;SDS011;8870;50.950;11.762;2023-12-22T21:01:44;0.50;;;0.20;;
17504;SDS011;8870;50.950;11.762;2023-12-22T21:07:16;1.23;;;0.38;;
17504;SDS011;8870;50.950;11.762;2023-12-22T21:12:49;0.37;;;0.10;;
17504;SDS011;8870;50.950;11.762;2023-12-22T21:18:08;2.10;;;0.40;;
17504;SDS011;8870;50.950;11.762;2023-12-22T21:23:39;1.77;;;0.40;;
17504;SDS011;8870;50.950;11.762;2023-12-22T21:29:00;0.82;;;0.38;;
17504;SDS011;8870;50.950;11.762;2023-12-22T21:34:31;0.50;;;0.30;;
17504;SDS011;8870;50.950;11.762;2023-12-22T21:39:49;0.70;;;0.43;;
17504;SDS011;8870;50.950;11.762;2023-12-22T21:45:24;0.98;;;0.30;;
17504;SDS011;8870;50.950;11.762;2023-12-22T21:50:46;0.83;;;0.23;;
17504;SDS011;8870;50.950;11.762;2023-12-22T21:56:20;0.90;;;0.35;;
17504;SDS011;8870;50.950;11.762;2023-12-22T22:01:45;1.75;;;0.30;;
17504;SDS011;8870;50.950;11.762;2023-12-22T22:07:17;1.33;;;0.47;;
17504;SDS011;8870;50.950;11.762;2023-12-22T22:12:48;0.47;;;0.30;;
17504;SDS011;8870;50.950;11.762;2023-12-22T22:18:09;1.30;;;0.50;;
17504;SDS011;8870;50.950;11.762;2023-12-22T22:23:40;2.67;;;0.60;;
17504;SDS011;8870;50.950;11.762;2023-12-22T22:28:58;1.15;;;0.45;;
17504;SDS011;8870;50.950;11.762;2023-12-22T22:34:35;1.13;;;0.25;;
17504;SDS011;8870;50.950;11.762;2023-12-22T22:39:55;1.40;;;0.50;;
17504;SDS011;8870;50.950;11.762;2023-12-22T22:45:27;0.75;;;0.30;;
17504;SDS011;8870;50.950;11.762;2023-12-22T22:50:48;0.93;;;0.30;;
17504;SDS011;8870;50.950;11.762;2023-12-22T22:56:19;0.43;;;0.32;;
17504;SDS011;8870;50.950;11.762;2023-12-22T23:01:37;2.08;;;0.30;;
17504;SDS011;8870;50.950;11.762;2023-12-22T23:07:11;1.95;;;0.35;;
17504;SDS011;8870;50.950;11.762;2023-12-22T23:12:29;0.82;;;0.32;;
17504;SDS011;8870;50.950;11.762;2023-12-22T23:18:00;1.08;;;0.40;;
17504;SDS011;8870;50.950;11.762;2023-12-22T23:23:21;1.80;;;0.40;;
17504;SDS011;8870;50.950;11.762;2023-12-22T23:28:52;2.03;;;0.40;;
17504;SDS011;8870;50.950;11.762;2023-12-22T23:34:10;1.35;;;0.50;;
17504;SDS011;8870;50.950;11.762;2023-12-22T23:39:44;1.48;;;0.30;;
17504;SDS011;8870;50.950;11.762;2023-12-22T23:45:02;1.48;;;0.22;;
17504;SDS011;8870;50.950;11.762;2023-12-22T23:50:34;1.35;;;0.20;;
17504;SDS011;8870;50.950;11.762;2023-12-22T23:55:55;1.58;;;0.30;;
